Time;durP1;ratioP1;P1;durP2;ratioP2;P2;SDS_P1;SDS_P2;PMS_P1;PMS_P2;Temp;Humidity;BMP_temperature;BMP_pressure;BME280_temperature;BME280_humidity;BME280_pressure;Samples;Min_cycle;Max_cycle;Signal;HPM_P1;HPM_P2
2022/06/17 00:02:14;;;;;;;4.70;3.60;;;16.60;99.90;;;;;;5079216;28;20488;-76
2022/06/17 00:04:40;;;;;;;4.13;3.47;;;16.60;99.90;;;;;;5087918;28;20459;-76
2022/06/17 00:07:13;;;;;;;7.57;3.50;;;16.60;99.90;;;;;;5090187;28;20429;-76
2022/06/17 00:09:40;;;;;;;4.17;3.30;;;16.60;99.90;;;;;;5092229;28;20433;-76
2022/06/17 00:12:12;;;;;;;3.23;3.00;;;16.60;99.90;;;;;;5084057;28;20518;-76
2022/06/17 00:17:20;;;;;;;3.57;3.33;;;16.50;99.90;;;;;;5077861;28;20469;-76
2022/06/17 00:19:47;;;;;;;6.10;3.63;;;16.50;99.90;;;;;;5082436;28;20425;-76
2022/06/17 00:22:14;;;;;;;3.77;3.47;;;16.50;99.90;;;;;;5077785;28;20512;-76
2022/06/17 00:24:41;;;;;;;11.60;3.70;;;16.50;99.90;;;;;;5082264;28;20459;-76
2022/06/17 00:27:10;;;;;;;3.37;3.07;;;16.50;99.90;;;;;;5078060;28;20575;-76
2022/06/17 00:29:36;;;;;;;7.03;3.43;;;16.40;99.90;;;;;;5077301;28;20490;-76
2022/06/17 00:32:05;;;;;;;5.23;3.37;;;16.30;99.90;;;;;;5085044;28;20521;-76
2022/06/17 00:34:32;;;;;;;5.00;3.57;;;16.30;99.90;;;;;;5080196;28;20476;-76
2022/06/17 00:37:01;;;;;;;3.50;3.20;;;16.20;99.90;;;;;;5077970;28;20457;-75
2022/06/17 00:39:30;;;;;;;6.40;3.30;;;16.10;99.90;;;;;;5078179;28;20534;-76
2022/06/17 00:42:03;;;;;;;4.43;3.73;;;16.00;99.90;;;;;;5087738;28;20478;-75
2022/06/17 00:44:38;;;;;;;4.30;3.50;;;16.00;99.90;;;;;;5090884;28;21037;-76
2022/06/17 00:47:15;;;;;;;4.37;3.40;;;15.90;99.90;;;;;;5089355;28;20425;-75
2022/06/17 00:49:48;;;;;;;6.67;3.73;;;15.80;99.90;;;;;;5090526;28;20920;-75
2022/06/17 00:52:20;;;;;;;4.13;3.57;;;15.70;99.90;;;;;;5085560;28;20429;-76
2022/06/17 00:54:53;;;;;;;5.47;3.70;;;15.70;99.90;;;;;;5090312;28;20433;-75
2022/06/17 00:57:23;;;;;;;5.73;3.40;;;15.70;99.90;;;;;;5082784;28;20457;-75
2022/06/17 01:00:11;;;;;;;3.80;3.50;;;15.70;99.90;;;;;;5076134;28;21022;-75
2022/06/17 01:02:43;;;;;;;5.03;3.73;;;15.60;99.90;;;;;;5090527;28;20450;-75
2022/06/17 01:05:11;;;;;;;5.33;3.10;;;15.50;99.90;;;;;;5080502;28;20455;-76
2022/06/17 01:07:41;;;;;;;4.33;3.80;;;15.50;99.90;;;;;;5076247;28;20830;-75
2022/06/17 01:10:11;;;;;;;5.17;3.60;;;15.50;99.90;;;;;;5078135;28;20442;-75
2022/06/17 01:12:41;;;;;;;6.10;3.17;;;15.40;99.90;;;;;;5076010;28;20426;-75
2022/06/17 01:15:10;;;;;;;4.00;3.60;;;15.40;99.90;;;;;;5082531;28;20468;-75
2022/06/17 01:17:40;;;;;;;4.33;3.53;;;15.30;99.90;;;;;;5088986;28;20797;-76
2022/06/17 01:20:10;;;;;;;7.70;3.83;;;15.20;99.90;;;;;;5087355;28;20450;-76
2022/06/17 01:22:43;;;;;;;4.67;3.67;;;15.20;99.90;;;;;;5090588;28;20451;-76
2022/06/17 01:25:13;;;;;;;6.23;3.37;;;15.20;99.90;;;;;;5088578;28;20511;-75
2022/06/17 01:27:43;;;;;;;7.10;3.47;;;15.10;99.90;;;;;;5090838;28;20515;-76
2022/06/17 01:30:13;;;;;;;4.30;3.90;;;15.10;99.90;;;;;;5088204;28;20495;-76
2022/06/17 01:32:47;;;;;;;4.33;3.30;;;15.10;99.90;;;;;;5079775;28;20421;-76
2022/06/17 01:35:14;;;;;;;4.50;3.67;;;15.00;99.90;;;;;;5083198;28;20838;-76
2022/06/17 01:37:42;;;;;;;3.90;3.57;;;14.90;99.90;;;;;;5088536;28;20903;-75
2022/06/17 01:40:10;;;;;;;4.13;3.60;;;15.00;99.90;;;;;;5072200;28;20479;-76
2022/06/17 01:42:39;;;;;;;4.70;3.57;;;15.00;99.90;;;;;;5072784;28;20818;-76
2022/06/17 01:45:08;;;;;;;4.57;3.43;;;15.00;99.90;;;;;;5071901;28;20965;-76
2022/06/17 01:47:35;;;;;;;4.53;3.60;;;15.00;99.90;;;;;;5072465;28;20605;-75
2022/06/17 01:50:07;;;;;;;6.30;3.60;;;14.90;99.90;;;;;;5072027;28;20545;-76
2022/06/17 01:52:37;;;;;;;4.47;3.17;;;14.90;99.90;;;;;;5072875;28;20455;-75
2022/06/17 01:55:09;;;;;;;3.87;3.57;;;14.80;99.90;;;;;;5072125;28;20501;-75
2022/06/17 01:57:40;;;;;;;5.83;3.53;;;14.80;99.90;;;;;;5087309;28;21075;-75
2022/06/17 02:00:13;;;;;;;4.57;4.10;;;14.70;99.90;;;;;;5087691;28;20483;-76
2022/06/17 02:02:42;;;;;;;3.97;3.67;;;14.70;99.90;;;;;;5079912;28;20530;-75
2022/06/17 02:05:11;;;;;;;5.43;3.70;;;14.60;99.90;;;;;;5075965;28;20451;-76
2022/06/17 02:07:47;;;;;;;9.90;4.33;;;14.60;99.90;;;;;;5074927;28;20452;-76
2022/06/17 02:10:15;;;;;;;8.70;4.07;;;14.50;99.90;;;;;;5076082;28;20462;-76
2022/06/17 02:12:42;;;;;;;7.50;3.60;;;14.50;99.90;;;;;;5074794;28;20451;-75
2022/06/17 02:15:10;;;;;;;6.00;3.67;;;14.50;99.90;;;;;;5075934;28;20485;-75
2022/06/17 02:17:41;;;;;;;7.53;3.53;;;14.50;99.90;;;;;;5078435;28;20487;-75
2022/06/17 02:20:12;;;;;;;4.63;3.70;;;14.60;99.90;;;;;;5089462;28;20518;-75
2022/06/17 02:22:39;;;;;;;8.30;3.73;;;14.60;99.90;;;;;;5089206;28;20450;-75
2022/06/17 02:25:09;;;;;;;9.43;3.90;;;14.60;99.90;;;;;;5087321;28;20508;-75
2022/06/17 02:27:40;;;;;;;4.57;4.00;;;14.60;99.90;;;;;;5089128;28;20496;-76
2022/06/17 02:30:09;;;;;;;4.17;3.70;;;14.60;99.90;;;;;;5087435;28;20474;-75
2022/06/17 02:32:37;;;;;;;4.40;3.70;;;14.60;99.90;;;;;;5086168;28;20492;-76
2022/06/17 02:35:11;;;;;;;3.70;3.40;;;14.60;99.90;;;;;;5085959;28;20809;-75
2022/06/17 02:37:38;;;;;;;5.27;3.93;;;14.50;99.90;;;;;;5088941;28;21047;-76
2022/06/17 02:40:12;;;;;;;4.20;3.80;;;14.50;99.90;;;;;;5087036;28;20474;-76
2022/06/17 02:42:40;;;;;;;4.27;3.47;;;14.50;99.90;;;;;;5089079;28;20416;-75
2022/06/17 02:45:13;;;;;;;3.90;3.60;;;14.50;99.90;;;;;;5086953;28;20842;-75
2022/06/17 02:47:40;;;;;;;4.67;4.20;;;14.50;99.90;;;;;;5081946;28;21189;-75
2022/06/17 02:50:14;;;;;;;5.60;4.20;;;14.40;99.90;;;;;;5087134;28;20468;-75
2022/06/17 02:52:41;;;;;;;4.20;3.80;;;14.40;99.90;;;;;;5081846;28;20496;-76
2022/06/17 02:55:12;;;;;;;3.80;3.57;;;14.40;99.90;;;;;;5080961;28;20838;-75
2022/06/17 02:57:40;;;;;;;4.80;4.20;;;14.30;99.90;;;;;;5078875;28;20907;-75
2022/06/17 03:00:13;;;;;;;5.43;4.30;;;14.20;99.90;;;;;;5077607;28;20951;-75
2022/06/17 03:02:43;;;;;;;5.87;3.90;;;14.20;99.90;;;;;;5074458;28;20864;-75
2022/06/17 03:05:17;;;;;;;10.37;4.77;;;14.10;99.90;;;;;;5075050;28;20938;-75
2022/06/17 03:07:44;;;;;;;7.33;4.93;;;14.10;99.90;;;;;;5079202;28;20911;-75
2022/06/17 03:10:15;;;;;;;5.53;4.83;;;14.10;99.90;;;;;;5077010;28;20503;-75
2022/06/17 03:12:45;;;;;;;5.70;4.90;;;14.00;99.90;;;;;;5073745;28;20538;-75
2022/06/17 03:15:14;;;;;;;5.80;5.17;;;14.00;99.90;;;;;;5074936;28;20450;-76
2022/06/17 03:17:43;;;;;;;5.23;4.80;;;13.90;99.90;;;;;;5086486;28;20535;-75
2022/06/17 03:20:14;;;;;;;9.33;5.30;;;13.90;99.90;;;;;;5086765;28;20535;-76
2022/06/17 03:22:42;;;;;;;6.10;5.50;;;13.90;99.90;;;;;;5088347;28;20496;-76
2022/06/17 03:25:15;;;;;;;11.60;4.70;;;13.80;99.90;;;;;;5080757;28;20448;-75
2022/06/17 03:27:48;;;;;;;10.33;4.60;;;13.80;99.90;;;;;;5077291;28;20436;-75
2022/06/17 03:30:19;;;;;;;4.40;4.10;;;13.80;99.90;;;;;;5080858;28;20524;-75
2022/06/17 03:33:00;;;;;;;4.97;4.23;;;13.80;99.90;;;;;;5086683;28;20504;-76
2022/06/17 03:35:31;;;;;;;6.20;4.63;;;13.70;99.90;;;;;;5091860;28;20450;-75
2022/06/17 03:38:01;;;;;;;7.37;4.20;;;13.70;99.90;;;;;;5090571;28;20551;-75
2022/06/17 03:40:31;;;;;;;5.00;4.33;;;13.70;99.90;;;;;;5091964;28;20886;-75
2022/06/17 03:43:06;;;;;;;8.63;5.00;;;13.80;99.90;;;;;;5091597;28;20968;-75
2022/06/17 03:45:43;;;;;;;5.70;5.17;;;13.80;99.90;;;;;;5086349;28;20923;-75
2022/06/17 03:48:16;;;;;;;5.13;4.30;;;13.90;99.90;;;;;;5090271;28;20478;-75
2022/06/17 03:50:47;;;;;;;7.00;4.07;;;13.90;99.90;;;;;;5088527;28;20470;-75
2022/06/17 03:53:22;;;;;;;5.50;4.80;;;13.90;99.90;;;;;;5090338;28;20462;-75
2022/06/17 03:55:49;;;;;;;5.60;4.37;;;14.00;99.90;;;;;;5080962;28;20491;-75
2022/06/17 03:58:19;;;;;;;7.43;4.60;;;14.00;99.90;;;;;;5090163;28;20482;-75
2022/06/17 04:00:51;;;;;;;8.70;4.90;;;13.90;99.90;;;;;;5092031;28;20841;-75
2022/06/17 04:03:21;;;;;;;6.30;4.50;;;13.90;99.90;;;;;;5089907;28;20860;-76
2022/06/17 04:05:53;;;;;;;5.60;4.53;;;14.00;99.90;;;;;;5079233;28;20452;-75
2022/06/17 04:08:20;;;;;;;7.10;4.73;;;14.00;99.90;;;;;;5077125;28;20447;-75
2022/06/17 04:10:47;;;;;;;5.23;4.73;;;14.00;99.90;;;;;;5076976;28;20467;-76
2022/06/17 04:13:16;;;;;;;4.97;4.50;;;14.10;99.90;;;;;;5077839;28;20460;-75
2022/06/17 04:15:49;;;;;;;5.80;4.30;;;14.10;99.90;;;;;;5077285;28;20481;-75
2022/06/17 04:18:15;;;;;;;5.67;4.73;;;14.20;99.90;;;;;;5078158;28;20539;-76
2022/06/17 04:20:47;;;;;;;5.03;4.40;;;14.20;99.90;;;;;;5081557;28;20989;-75
2022/06/17 04:23:16;;;;;;;5.13;4.40;;;14.30;99.90;;;;;;5089533;28;20450;-75
2022/06/17 04:25:46;;;;;;;5.00;4.57;;;14.30;99.90;;;;;;5091882;28;20480;-75
2022/06/17 04:28:17;;;;;;;5.13;4.50;;;14.30;99.90;;;;;;5089871;28;20446;-76
2022/06/17 04:30:48;;;;;;;5.33;4.70;;;14.40;99.90;;;;;;5091466;28;20527;-76
2022/06/17 04:33:25;;;;;;;4.93;4.53;;;14.50;99.90;;;;;;5089174;28;20496;-76
2022/06/17 04:35:56;;;;;;;6.63;4.47;;;14.50;99.90;;;;;;5085902;28;20992;-76
2022/06/17 04:38:23;;;;;;;5.47;4.30;;;14.60;99.90;;;;;;5077910;28;20494;-75
2022/06/17 04:40:55;;;;;;;5.18;4.00;;;14.70;99.90;;;;;;5075759;28;20438;-76
2022/06/17 04:43:28;;;;;;;5.87;4.50;;;14.70;99.90;;;;;;5077771;28;20204;-77
2022/06/17 04:46:00;;;;;;;5.20;4.70;;;14.80;99.90;;;;;;5080980;28;20888;-77
2022/06/17 04:48:26;;;;;;;4.90;4.40;;;14.90;99.90;;;;;;5089022;28;20448;-77
2022/06/17 04:50:53;;;;;;;7.70;4.53;;;14.90;99.90;;;;;;5091029;28;20502;-77
2022/06/17 04:53:20;;;;;;;6.50;4.20;;;15.00;99.90;;;;;;5089290;28;20417;-78
2022/06/17 04:55:48;;;;;;;7.40;5.00;;;15.10;99.90;;;;;;5091142;28;20446;-77
2022/06/17 04:58:17;;;;;;;9.10;4.57;;;15.10;99.90;;;;;;5088434;28;20470;-78
2022/06/17 05:00:46;;;;;;;6.07;4.80;;;15.10;99.90;;;;;;5078466;28;20521;-76
2022/06/17 05:03:14;;;;;;;6.10;4.43;;;15.20;99.90;;;;;;5089051;28;20454;-77
2022/06/17 05:05:43;;;;;;;5.17;4.67;;;15.20;99.90;;;;;;5087398;28;20508;-76
2022/06/17 05:08:16;;;;;;;4.90;4.30;;;15.30;99.90;;;;;;5077082;28;20443;-77
2022/06/17 05:10:47;;;;;;;9.10;4.10;;;15.40;99.90;;;;;;5073173;28;20521;-76
2022/06/17 05:13:18;;;;;;;10.57;4.17;;;15.60;99.90;;;;;;5072857;28;20448;-77
2022/06/17 05:15:45;;;;;;;7.00;4.47;;;15.80;99.90;;;;;;5073329;28;20487;-77
2022/06/17 05:18:13;;;;;;;5.27;3.73;;;16.00;99.90;;;;;;5072998;28;21056;-77
2022/06/17 05:20:42;;;;;;;7.40;3.70;;;16.10;99.90;;;;;;5079222;28;20999;-76
2022/06/17 05:23:11;;;;;;;6.17;4.40;;;16.30;99.90;;;;;;5079066;28;20221;-76
2022/06/17 05:25:39;;;;;;;8.20;5.00;;;16.40;99.90;;;;;;5087850;28;20982;-76
2022/06/17 05:28:07;;;;;;;10.60;5.60;;;16.50;99.90;;;;;;5076273;28;20414;-76
2022/06/17 05:30:36;;;;;;;5.33;3.73;;;16.60;99.90;;;;;;5075703;28;20525;-76
2022/06/17 05:33:03;;;;;;;11.33;4.67;;;16.80;99.90;;;;;;5078321;28;20824;-76
2022/06/17 05:35:31;;;;;;;5.83;4.43;;;17.00;99.90;;;;;;5076358;28;20425;-76
2022/06/17 05:37:58;;;;;;;13.17;4.33;;;17.10;99.90;;;;;;5086815;28;20553;-77
2022/06/17 05:40:26;;;;;;;8.10;4.37;;;17.30;99.90;;;;;;5077436;28;20518;-78
2022/06/17 05:42:53;;;;;;;10.33;4.20;;;17.40;99.90;;;;;;5075457;28;21115;-77
2022/06/17 05:45:21;;;;;;;5.73;4.33;;;17.50;99.90;;;;;;5083200;28;20437;-78
2022/06/17 05:47:48;;;;;;;4.77;4.17;;;17.50;99.90;;;;;;5078079;28;20517;-78
2022/06/17 05:50:16;;;;;;;5.70;4.10;;;17.70;99.90;;;;;;5089693;28;20466;-78
2022/06/17 05:52:52;;;;;;;5.00;4.00;;;17.90;99.90;;;;;;5092457;28;20418;-78
2022/06/17 05:55:20;;;;;;;7.23;4.30;;;18.00;99.90;;;;;;5090597;28;20421;-78
2022/06/17 05:57:47;;;;;;;8.47;3.90;;;18.20;99.90;;;;;;5085236;28;20510;-78
2022/06/17 06:00:15;;;;;;;4.77;4.10;;;18.30;99.90;;;;;;5083046;28;20478;-77
2022/06/17 06:02:42;;;;;;;3.87;3.57;;;18.50;99.90;;;;;;5086127;28;21144;-77
2022/06/17 06:05:12;;;;;;;5.57;3.80;;;18.80;99.90;;;;;;5086275;28;20451;-77
2022/06/17 06:07:39;;;;;;;4.17;3.87;;;19.00;99.90;;;;;;5074680;28;20443;-77
2022/06/17 06:10:08;;;;;;;4.60;4.20;;;19.20;99.90;;;;;;5079104;28;20454;-77
2022/06/17 06:15:20;;;;;;;7.00;4.03;;;19.50;99.90;;;;;;5080104;28;20416;-77
2022/06/17 06:17:47;;;;;;;8.23;3.70;;;19.70;99.90;;;;;;5089063;28;20499;-77
2022/06/17 06:20:14;;;;;;;7.50;3.90;;;19.90;99.90;;;;;;5082500;28;20567;-77
2022/06/17 06:22:40;;;;;;;5.73;4.00;;;20.00;99.90;;;;;;5072020;28;20501;-77
2022/06/17 06:25:11;;;;;;;11.60;4.50;;;20.10;99.90;;;;;;5071782;28;20497;-77
2022/06/17 06:27:38;;;;;;;6.30;4.03;;;20.10;99.90;;;;;;5078239;28;20496;-77
2022/06/17 06:30:06;;;;;;;3.90;3.60;;;20.10;99.90;;;;;;5081421;28;20446;-77
2022/06/17 06:32:32;;;;;;;8.70;3.80;;;20.10;99.90;;;;;;5088220;28;20485;-76
2022/06/17 06:34:59;;;;;;;7.30;4.07;;;20.30;99.90;;;;;;5082639;28;20508;-77
2022/06/17 06:37:26;;;;;;;6.23;4.20;;;20.50;99.90;;;;;;5084314;28;20461;-77
2022/06/17 06:39:52;;;;;;;4.23;3.57;;;20.60;99.90;;;;;;5081923;28;21152;-78
2022/06/17 06:42:20;;;;;;;5.30;4.13;;;20.70;99.90;;;;;;5085568;28;20447;-78
2022/06/17 06:44:47;;;;;;;4.30;3.80;;;20.90;99.90;;;;;;5075410;28;20452;-80
2022/06/17 06:47:14;;;;;;;6.87;3.80;;;21.00;99.90;;;;;;5076669;28;20970;-77
2022/06/17 06:49:40;;;;;;;5.47;3.97;;;21.10;99.90;;;;;;5073076;28;20534;-79
2022/06/17 06:52:07;;;;;;;10.00;4.47;;;21.30;99.90;;;;;;5075259;28;20951;-77
2022/06/17 06:54:34;;;;;;;4.07;3.67;;;21.50;99.90;;;;;;5072915;28;20459;-78
2022/06/17 06:57:01;;;;;;;10.93;3.80;;;21.70;99.90;;;;;;5085097;28;20458;-78
2022/06/17 06:59:32;;;;;;;5.63;3.70;;;21.70;99.90;;;;;;5082889;28;20493;-78
2022/06/17 07:01:58;;;;;;;5.23;3.27;;;21.80;99.90;;;;;;5082520;28;20505;-78
2022/06/17 07:04:25;;;;;;;3.00;2.70;;;22.10;99.90;;;;;;5077846;28;20451;-78
2022/06/17 07:06:51;;;;;;;3.80;3.30;;;22.20;99.90;;;;;;5078420;28;20451;-78
2022/06/17 07:09:20;;;;;;;3.97;2.83;;;22.40;99.90;;;;;;5073541;28;20456;-78
2022/06/17 07:11:47;;;;;;;4.63;3.30;;;22.50;99.90;;;;;;5072979;28;20493;-76
2022/06/17 07:14:13;;;;;;;5.37;3.20;;;22.60;99.90;;;;;;5073536;28;20452;-78
2022/06/17 07:16:41;;;;;;;3.57;3.27;;;22.40;99.90;;;;;;5073189;28;20501;-77
2022/06/17 07:19:10;;;;;;;4.23;3.40;;;22.20;99.90;;;;;;5083902;28;20482;-78
2022/06/17 07:21:37;;;;;;;9.50;3.30;;;22.20;99.90;;;;;;5073570;28;21013;-77
2022/06/17 07:24:04;;;;;;;4.70;3.13;;;22.40;99.90;;;;;;5084409;28;20447;-77
2022/06/17 07:26:31;;;;;;;3.40;3.10;;;22.60;99.90;;;;;;5075388;28;20444;-77
2022/06/17 07:28:57;;;;;;;6.97;3.60;;;22.80;99.90;;;;;;5088798;28;20447;-78
2022/06/17 07:31:24;;;;;;;7.70;3.10;;;23.00;99.90;;;;;;5084749;28;20524;-80
2022/06/17 07:33:52;;;;;;;4.70;3.13;;;22.90;99.90;;;;;;5084455;28;20451;-80
2022/06/17 07:41:49;;;;;;;5.57;3.43;;;22.70;99.90;;;;;;5093592;28;20937;-82
2022/06/17 07:44:17;;;;;;;5.30;2.90;;;22.80;99.90;;;;;;5084242;28;20456;-81
2022/06/17 07:46:44;;;;;;;3.43;3.13;;;23.00;99.90;;;;;;5081967;28;20479;-80
2022/06/17 07:49:12;;;;;;;12.20;2.93;;;23.20;99.90;;;;;;5085755;28;20961;-81
2022/06/17 07:51:39;;;;;;;5.20;2.40;;;23.50;99.90;;;;;;5077274;28;20485;-81
2022/06/17 07:54:06;;;;;;;9.73;2.97;;;23.60;99.90;;;;;;5079181;28;20447;-81
2022/06/17 07:56:32;;;;;;;3.57;2.47;;;23.70;99.90;;;;;;5088607;28;20904;-81
2022/06/17 07:58:59;;;;;;;5.43;3.10;;;23.80;99.90;;;;;;5083733;28;20478;-80
2022/06/17 08:01:26;;;;;;;4.47;3.10;;;23.70;99.90;;;;;;5091176;28;20483;-81
2022/06/17 08:03:53;;;;;;;7.17;3.30;;;23.40;99.90;;;;;;5090651;28;20455;-81
2022/06/17 08:06:21;;;;;;;4.80;3.43;;;23.50;99.90;;;;;;5087783;28;20450;-81
2022/06/17 08:08:49;;;;;;;4.37;2.87;;;23.60;99.90;;;;;;5075767;28;20447;-81
2022/06/17 08:11:16;;;;;;;4.43;2.50;;;23.40;99.90;;;;;;5075985;28;20551;-81
2022/06/17 08:13:42;;;;;;;6.17;2.90;;;23.40;99.90;;;;;;5082694;28;20826;-81
2022/06/17 08:16:12;;;;;;;5.50;2.77;;;23.50;99.90;;;;;;5089627;28;20527;-81
2022/06/17 08:18:40;;;;;;;3.93;3.17;;;23.70;99.90;;;;;;5074689;28;21063;-83
2022/06/17 08:21:07;;;;;;;3.77;2.80;;;24.10;99.90;;;;;;5077813;28;20468;-81
2022/06/17 08:23:35;;;;;;;4.07;2.73;;;24.20;99.90;;;;;;5077840;28;20955;-81
2022/06/17 08:26:02;;;;;;;7.60;3.20;;;24.10;99.90;;;;;;5083724;28;20472;-81
2022/06/17 08:28:29;;;;;;;4.50;2.67;;;24.00;99.90;;;;;;5093393;28;20444;-81
2022/06/17 08:30:57;;;;;;;7.00;2.80;;;23.90;99.90;;;;;;5086449;28;20542;-81
2022/06/17 08:33:28;;;;;;;3.83;2.20;;;24.00;99.90;;;;;;5085006;28;20454;-82
2022/06/17 08:35:58;;;;;;;5.00;2.30;;;24.20;99.50;;;;;;5095387;28;20482;-80
2022/06/17 08:38:28;;;;;;;4.67;2.30;;;24.40;99.20;;;;;;5088920;28;20475;-82
2022/06/17 08:40:59;;;;;;;5.13;2.10;;;24.50;98.20;;;;;;5084424;28;20475;-81
2022/06/17 08:44:20;;;;;;;4.90;2.80;;;24.60;98.00;;;;;;5086933;28;20459;-80
2022/06/17 08:47:00;;;;;;;3.00;2.50;;;24.60;99.20;;;;;;5034822;28;20449;-80
2022/06/17 08:49:58;;;;;;;5.70;3.00;;;24.90;99.90;;;;;;5034415;28;20503;-81
2022/06/17 08:52:41;;;;;;;3.23;2.80;;;25.20;99.40;;;;;;5080634;28;20505;-81
2022/06/17 08:55:18;;;;;;;4.53;3.50;;;25.50;99.60;;;;;;5081763;28;20520;-81
2022/06/17 08:58:00;;;;;;;2.73;2.53;;;25.00;99.10;;;;;;5092523;28;21003;-80
2022/06/17 09:00:37;;;;;;;4.33;3.00;;;25.00;99.90;;;;;;5085829;28;20475;-81
2022/06/17 09:03:31;;;;;;;7.63;3.10;;;24.90;99.90;;;;;;5083166;28;20660;-80
2022/06/17 09:06:15;;;;;;;6.00;3.13;;;24.80;99.90;;;;;;5083569;28;20492;-80
2022/06/17 09:09:08;;;;;;;3.57;3.00;;;24.60;99.80;;;;;;5091787;28;20450;-79
2022/06/17 09:11:42;;;;;;;5.87;3.00;;;24.50;99.50;;;;;;5091146;28;20845;-82
2022/06/17 09:14:27;;;;;;;3.57;2.80;;;24.30;99.90;;;;;;5082328;28;20501;-80
2022/06/17 09:17:02;;;;;;;8.20;2.77;;;24.30;99.90;;;;;;5073805;28;20452;-77
2022/06/17 09:19:31;;;;;;;2.67;2.47;;;24.80;99.90;;;;;;5072604;28;20535;-78
2022/06/17 09:22:02;;;;;;;4.20;2.23;;;25.30;98.40;;;;;;5073521;28;20455;-78
2022/06/17 09:24:33;;;;;;;6.53;2.30;;;25.50;97.00;;;;;;5073096;28;20513;-77
2022/06/17 09:27:04;;;;;;;4.07;2.10;;;25.50;97.40;;;;;;5080225;28;20448;-77
2022/06/17 09:29:46;;;;;;;3.17;2.30;;;25.90;96.50;;;;;;5077694;28;20474;-78
2022/06/17 09:32:19;;;;;;;4.20;2.57;;;26.00;96.20;;;;;;5074972;28;20871;-78
2022/06/17 09:34:53;;;;;;;4.13;2.37;;;26.10;96.70;;;;;;5076512;28;20452;-78
2022/06/17 09:37:28;;;;;;;4.77;2.20;;;25.90;96.30;;;;;;5076599;28;20509;-78
2022/06/17 09:40:01;;;;;;;6.43;2.30;;;25.80;96.30;;;;;;5079955;28;20903;-78
2022/06/17 09:42:34;;;;;;;2.90;2.40;;;25.90;95.70;;;;;;5086443;28;20451;-77
2022/06/17 09:45:10;;;;;;;3.17;2.10;;;26.00;94.60;;;;;;5080115;28;20801;-78
2022/06/17 09:47:41;;;;;;;5.60;2.27;;;25.70;93.60;;;;;;5083265;28;20447;-78
2022/06/17 09:50:15;;;;;;;7.00;2.37;;;25.50;93.10;;;;;;5086513;28;20524;-78
2022/06/17 09:52:45;;;;;;;4.37;2.10;;;25.50;92.80;;;;;;5081895;28;20876;-78
2022/06/17 09:55:18;;;;;;;2.90;2.30;;;25.50;93.50;;;;;;5082910;28;20507;-78
2022/06/17 09:57:52;;;;;;;3.80;2.30;;;25.50;94.30;;;;;;5086960;28;20469;-77
2022/06/17 10:00:22;;;;;;;3.40;2.00;;;25.40;94.50;;;;;;5076802;28;20529;-79
2022/06/17 10:03:08;;;;;;;6.07;1.93;;;25.60;94.60;;;;;;5086525;28;20455;-78
2022/06/17 10:05:42;;;;;;;2.90;1.97;;;26.00;93.50;;;;;;5077170;28;20458;-77
2022/06/17 10:08:20;;;;;;;1.63;1.53;;;25.90;93.40;;;;;;5081294;28;21011;-77
2022/06/17 10:10:55;;;;;;;3.10;2.00;;;25.80;92.20;;;;;;5089265;28;20525;-78
2022/06/17 10:13:29;;;;;;;3.70;1.80;;;25.70;92.00;;;;;;5086458;28;20512;-77
2022/06/17 10:19:04;;;;;;;7.60;2.10;;;25.80;92.30;;;;;;5088844;28;20485;-78
2022/06/17 10:21:48;;;;;;;6.17;1.90;;;26.30;92.30;;;;;;5075632;28;20899;-77
2022/06/17 10:24:23;;;;;;;4.80;2.17;;;26.20;92.30;;;;;;5074390;28;20478;-77
2022/06/17 10:27:02;;;;;;;2.37;1.90;;;26.10;92.70;;;;;;5086190;28;20961;-77
2022/06/17 10:29:50;;;;;;;4.27;1.90;;;26.30;92.30;;;;;;5075692;28;20958;-77
2022/06/17 10:32:18;;;;;;;3.47;2.10;;;26.50;93.40;;;;;;5088073;28;20500;-78
2022/06/17 10:34:49;;;;;;;3.00;2.00;;;27.10;92.60;;;;;;5080629;28;20508;-77
2022/06/17 10:37:16;;;;;;;6.40;1.83;;;26.50;92.30;;;;;;5074152;28;20456;-78
2022/06/17 10:39:44;;;;;;;3.20;1.90;;;26.40;92.60;;;;;;5076384;28;20483;-76
2022/06/17 10:42:16;;;;;;;2.80;2.10;;;26.60;93.00;;;;;;5075292;28;20483;-79
2022/06/17 10:44:47;;;;;;;3.23;2.03;;;26.80;93.20;;;;;;5080787;28;20537;-79
2022/06/17 10:47:28;;;;;;;5.67;2.43;;;26.50;91.90;;;;;;5078367;28;20476;-78
2022/06/17 10:49:59;;;;;;;2.03;1.80;;;26.60;92.30;;;;;;5075154;28;20467;-77
2022/06/17 10:52:33;;;;;;;7.93;1.77;;;26.70;92.50;;;;;;5087028;28;20515;-77
2022/06/17 10:55:02;;;;;;;2.93;1.90;;;27.10;92.10;;;;;;5074561;28;20452;-77
2022/06/17 10:57:32;;;;;;;2.13;1.83;;;27.00;90.90;;;;;;5077517;28;20447;-77
2022/06/17 10:59:59;;;;;;;2.07;1.93;;;27.00;91.30;;;;;;5083869;28;20520;-77
2022/06/17 11:02:30;;;;;;;2.80;1.97;;;26.80;91.00;;;;;;5084812;28;20450;-81
2022/06/17 11:04:59;;;;;;;2.40;1.57;;;26.80;90.30;;;;;;5085055;28;20462;-80
2022/06/17 11:07:30;;;;;;;2.80;1.87;;;26.80;91.50;;;;;;5081788;28;20975;-80
2022/06/17 11:10:00;;;;;;;2.70;2.43;;;26.60;91.40;;;;;;5079782;28;20469;-81
2022/06/17 11:12:35;;;;;;;3.13;1.97;;;26.60;92.20;;;;;;5080358;28;20452;-81
2022/06/17 11:15:05;;;;;;;3.37;2.20;;;26.90;91.70;;;;;;5080175;28;20537;-79
2022/06/17 11:17:36;;;;;;;1.93;1.80;;;27.00;90.90;;;;;;5086370;28;20454;-80
2022/06/17 11:20:07;;;;;;;2.47;2.00;;;26.90;90.90;;;;;;5084323;28;20474;-81
2022/06/17 11:22:35;;;;;;;7.13;1.83;;;27.10;91.00;;;;;;5084202;28;20499;-81
2022/06/17 11:25:06;;;;;;;2.50;1.90;;;27.10;91.90;;;;;;5085368;28;21000;-80
2022/06/17 11:27:38;;;;;;;2.80;1.80;;;27.10;91.10;;;;;;5084440;28;20461;-82
2022/06/17 11:30:23;;;;;;;2.30;2.10;;;27.30;90.30;;;;;;5082724;28;20471;-81
2022/06/17 11:32:52;;;;;;;4.33;1.70;;;27.50;90.80;;;;;;5077280;28;20955;-82
2022/06/17 11:35:36;;;;;;;2.13;1.90;;;27.40;89.10;;;;;;5080906;28;20451;-80
2022/06/17 11:38:09;;;;;;;2.33;1.83;;;27.40;90.00;;;;;;5076514;28;20534;-79
2022/06/17 11:40:48;;;;;;;1.93;1.50;;;27.50;90.50;;;;;;5079674;28;20494;-76
2022/06/17 11:43:26;;;;;;;1.57;1.47;;;27.70;88.50;;;;;;5078770;28;20959;-76
2022/06/17 11:45:54;;;;;;;2.00;1.73;;;27.80;90.10;;;;;;5083153;28;20450;-76
2022/06/17 11:48:23;;;;;;;11.20;3.07;;;27.80;88.00;;;;;;5081593;28;20451;-75
2022/06/17 11:51:05;;;;;;;3.17;1.60;;;27.80;90.10;;;;;;5078957;28;20516;-75
2022/06/17 11:53:41;;;;;;;3.70;1.60;;;27.90;89.20;;;;;;5079722;28;20478;-74
2022/06/17 11:56:09;;;;;;;2.60;2.00;;;27.80;89.60;;;;;;5081782;28;20452;-75
2022/06/17 11:58:53;;;;;;;4.07;2.00;;;27.80;88.90;;;;;;5084611;28;20524;-76
2022/06/17 12:01:19;;;;;;;4.53;1.87;;;27.90;89.90;;;;;;5083465;28;20462;-76
2022/06/17 12:03:47;;;;;;;6.00;2.10;;;27.90;88.20;;;;;;5083541;28;20799;-76
2022/06/17 12:06:25;;;;;;;7.47;1.97;;;27.70;88.60;;;;;;5084873;28;20462;-75
2022/06/17 12:08:57;;;;;;;2.10;1.90;;;28.00;87.80;;;;;;5079850;28;20447;-77
2022/06/17 12:11:36;;;;;;;6.40;1.60;;;28.10;86.30;;;;;;5082181;28;21052;-79
2022/06/17 12:14:06;;;;;;;1.73;1.60;;;28.20;85.70;;;;;;5082181;28;20451;-76
2022/06/17 12:16:39;;;;;;;5.20;2.03;;;28.00;86.80;;;;;;5084846;28;20510;-73
2022/06/17 12:19:12;;;;;;;2.20;2.10;;;28.10;87.10;;;;;;5076935;28;20197;-76
2022/06/17 12:21:46;;;;;;;3.63;1.80;;;28.30;88.10;;;;;;5081734;28;20467;-76
2022/06/17 12:24:23;;;;;;;2.50;1.70;;;28.80;87.80;;;;;;5081443;28;20459;-76
2022/06/17 12:26:56;;;;;;;3.40;1.87;;;29.10;85.70;;;;;;5075205;28;20946;-75
2022/06/17 12:29:27;;;;;;;4.03;1.80;;;29.10;86.40;;;;;;5084298;28;20484;-75
2022/06/17 12:31:58;;;;;;;2.03;1.57;;;29.20;85.60;;;;;;5080624;28;20467;-75
2022/06/17 12:34:34;;;;;;;6.03;1.63;;;29.50;86.00;;;;;;5083960;28;20467;-71
2022/06/17 12:37:08;;;;;;;1.93;1.50;;;29.50;83.50;;;;;;5083928;28;20450;-74
2022/06/17 12:39:38;;;;;;;1.70;1.60;;;29.30;83.30;;;;;;5082655;28;21043;-76
2022/06/17 12:42:08;;;;;;;3.87;1.70;;;28.90;85.20;;;;;;5083532;28;20442;-76
2022/06/17 12:44:47;;;;;;;4.18;1.98;;;28.70;84.50;;;;;;5078036;28;20442;-75
2022/06/17 12:47:20;;;;;;;2.67;1.60;;;28.70;84.60;;;;;;5075205;28;20197;-76
2022/06/17 12:55:57;;;;;;;6.10;2.17;;;29.00;83.70;;;;;;5084378;28;20475;-75
2022/06/17 12:58:43;;;;;;;2.00;1.70;;;29.00;83.60;;;;;;5078117;28;21313;-75
2022/06/17 13:01:17;;;;;;;2.00;1.90;;;29.30;86.40;;;;;;5078680;28;20503;-75
2022/06/17 13:04:08;;;;;;;3.47;1.70;;;29.20;85.30;;;;;;5079642;28;20452;-75
2022/06/17 13:06:56;;;;;;;2.20;1.60;;;28.90;84.90;;;;;;5076162;28;20455;-75
2022/06/17 13:09:29;;;;;;;7.97;1.70;;;28.80;85.00;;;;;;5080374;28;20455;-75
2022/06/17 13:12:06;;;;;;;8.87;1.80;;;29.00;84.60;;;;;;5077157;28;20448;-74
2022/06/17 13:14:42;;;;;;;1.77;1.67;;;28.70;84.50;;;;;;5080745;28;20474;-75
2022/06/17 13:17:18;;;;;;;2.03;1.47;;;28.60;84.00;;;;;;5071932;28;20974;-75
2022/06/17 13:19:51;;;;;;;6.40;1.73;;;28.80;84.20;;;;;;5082265;28;20490;-75
2022/06/17 13:22:26;;;;;;;1.93;1.73;;;28.60;84.60;;;;;;5074732;28;20481;-75
2022/06/17 13:24:59;;;;;;;2.07;1.70;;;28.60;83.80;;;;;;5082340;28;20492;-76
2022/06/17 13:27:32;;;;;;;5.43;1.50;;;28.60;82.80;;;;;;5079218;28;20481;-76